Time;durP1;ratioP1;P1;durP2;ratioP2;P2;SDS_P1;SDS_P2;PMS_P1;PMS_P2;Temp;Humidity;BMP_temperature;BMP_pressure;BME280_temperature;BME280_humidity;BME280_pressure;Samples;Min_cycle;Max_cycle;Signal;HPM_P1;HPM_P2
2021/09/05 00:00:28;;;;;;;17.80;14.70;;;13.20;99.90;;;;;;5070563;28;20885;-65
2021/09/05 00:02:55;;;;;;;17.20;14.00;;;13.20;99.90;;;;;;5072601;28;20491;-65
2021/09/05 00:05:22;;;;;;;14.50;13.10;;;13.30;99.90;;;;;;5072637;28;20470;-65
2021/09/05 00:07:49;;;;;;;17.07;13.90;;;13.20;99.90;;;;;;5072506;28;20442;-65
2021/09/05 00:10:17;;;;;;;16.07;14.47;;;13.10;99.90;;;;;;5072565;28;20530;-65
2021/09/05 00:12:44;;;;;;;16.90;14.03;;;13.10;99.90;;;;;;5072069;28;20451;-65
2021/09/05 00:15:12;;;;;;;16.50;14.33;;;13.20;99.90;;;;;;5072207;28;20954;-65
2021/09/05 00:17:39;;;;;;;16.27;14.60;;;13.10;99.90;;;;;;5072558;28;20569;-65
2021/09/05 00:20:08;;;;;;;15.97;13.70;;;13.10;99.90;;;;;;5072557;28;20537;-65
2021/09/05 00:22:35;;;;;;;15.70;13.43;;;13.10;99.90;;;;;;5071917;28;20447;-65
2021/09/05 00:25:03;;;;;;;17.17;15.13;;;13.00;99.90;;;;;;5072430;28;20469;-65
2021/09/05 00:27:32;;;;;;;16.53;14.80;;;13.00;99.90;;;;;;5072395;28;20443;-65
2021/09/05 00:29:58;;;;;;;18.33;15.47;;;13.00;99.90;;;;;;5072247;28;20481;-65
2021/09/05 00:32:25;;;;;;;19.93;14.40;;;12.90;99.90;;;;;;5071805;28;20939;-64
2021/09/05 00:34:52;;;;;;;17.50;15.80;;;12.90;99.90;;;;;;5072455;28;20463;-65
2021/09/05 00:37:19;;;;;;;17.20;14.83;;;12.90;99.90;;;;;;5072064;28;20526;-63
2021/09/05 00:39:46;;;;;;;16.40;14.13;;;12.90;99.90;;;;;;5072351;28;20875;-66
2021/09/05 00:42:13;;;;;;;16.93;13.37;;;13.00;99.90;;;;;;5071525;28;20442;-65
2021/09/05 00:44:41;;;;;;;15.90;14.30;;;12.90;99.90;;;;;;5072340;28;20824;-66
2021/09/05 00:47:08;;;;;;;16.10;14.40;;;12.90;99.90;;;;;;5072193;28;20441;-64
2021/09/05 00:49:35;;;;;;;18.83;15.30;;;12.90;99.90;;;;;;5071837;28;20441;-64
2021/09/05 00:52:01;;;;;;;15.90;13.30;;;12.90;99.90;;;;;;5071589;28;20453;-64
2021/09/05 00:54:28;;;;;;;17.70;14.90;;;12.80;99.90;;;;;;5071741;28;20467;-64
2021/09/05 00:56:55;;;;;;;16.47;14.17;;;12.80;99.90;;;;;;5071602;28;20475;-64
2021/09/05 00:59:23;;;;;;;15.50;13.70;;;12.80;99.90;;;;;;5072183;28;20435;-64
2021/09/05 01:01:51;;;;;;;15.23;13.50;;;12.70;99.90;;;;;;5071803;28;20447;-64
2021/09/05 01:04:18;;;;;;;14.43;12.90;;;12.70;99.90;;;;;;5071671;28;20459;-64
2021/09/05 01:06:45;;;;;;;16.47;14.13;;;12.80;99.90;;;;;;5072063;28;20465;-64
2021/09/05 01:09:12;;;;;;;16.50;14.10;;;12.80;99.90;;;;;;5071939;28;20782;-64
2021/09/05 01:11:39;;;;;;;15.70;13.27;;;12.80;99.90;;;;;;5071098;28;20529;-64
2021/09/05 01:14:09;;;;;;;15.30;13.57;;;12.70;99.90;;;;;;5071588;28;20951;-64
2021/09/05 01:16:38;;;;;;;14.67;13.17;;;12.70;99.90;;;;;;5071396;28;21195;-65
2021/09/05 01:19:08;;;;;;;15.57;13.13;;;12.70;99.90;;;;;;5071796;28;20916;-65
2021/09/05 01:21:36;;;;;;;14.77;13.13;;;12.70;99.90;;;;;;5071063;28;20446;-64
2021/09/05 01:24:04;;;;;;;16.23;14.13;;;12.60;99.90;;;;;;5071209;28;20455;-64
2021/09/05 01:26:33;;;;;;;16.40;14.70;;;12.60;99.90;;;;;;5071265;28;20514;-64
2021/09/05 01:29:02;;;;;;;14.70;13.10;;;12.60;99.90;;;;;;5071432;28;20438;-64
2021/09/05 01:31:38;;;;;;;16.43;14.40;;;12.60;99.90;;;;;;5070723;28;21108;-64
2021/09/05 01:34:05;;;;;;;15.07;13.23;;;12.60;99.90;;;;;;5071024;28;20463;-64
2021/09/05 01:36:32;;;;;;;17.23;14.00;;;12.40;99.90;;;;;;5071056;28;20814;-64
2021/09/05 01:38:59;;;;;;;15.70;13.77;;;12.60;99.90;;;;;;5071249;28;20458;-64
2021/09/05 01:41:26;;;;;;;15.17;13.60;;;12.50;99.90;;;;;;5071030;28;20443;-64
2021/09/05 01:43:58;;;;;;;14.87;13.33;;;12.50;99.90;;;;;;5070770;28;20459;-64
2021/09/05 01:46:26;;;;;;;15.67;13.97;;;12.50;99.90;;;;;;5071020;28;20444;-64
2021/09/05 01:48:53;;;;;;;14.50;13.00;;;12.50;99.90;;;;;;5070809;28;20450;-65
2021/09/05 01:51:20;;;;;;;16.23;14.50;;;12.50;99.90;;;;;;5070577;28;20461;-64
2021/09/05 01:53:47;;;;;;;15.00;13.40;;;12.50;99.90;;;;;;5070627;28;20542;-65
2021/09/05 01:56:14;;;;;;;15.67;12.97;;;12.50;99.90;;;;;;5070785;28;20917;-66
2021/09/05 01:58:41;;;;;;;16.80;14.30;;;12.50;99.90;;;;;;5070767;28;20537;-64
2021/09/05 02:01:09;;;;;;;16.47;14.27;;;12.40;99.90;;;;;;5070721;28;20447;-64
2021/09/05 02:03:37;;;;;;;16.70;14.27;;;12.50;99.90;;;;;;5070143;28;20474;-64
2021/09/05 02:06:04;;;;;;;18.67;15.10;;;12.40;99.90;;;;;;5070743;28;20440;-64
2021/09/05 02:08:32;;;;;;;15.23;13.63;;;12.40;99.90;;;;;;5070765;28;20431;-64
2021/09/05 02:10:59;;;;;;;14.50;13.00;;;12.40;99.90;;;;;;5070296;28;21082;-65
2021/09/05 02:13:26;;;;;;;15.20;13.23;;;12.30;99.90;;;;;;5070096;28;20537;-64
2021/09/05 02:15:52;;;;;;;16.63;14.83;;;12.40;99.90;;;;;;5070310;28;20435;-64
2021/09/05 02:18:20;;;;;;;17.67;14.77;;;12.30;99.90;;;;;;5070379;28;20585;-64
2021/09/05 02:20:48;;;;;;;16.40;14.70;;;12.30;99.90;;;;;;5070328;28;20439;-64
2021/09/05 02:23:15;;;;;;;17.03;15.27;;;12.20;99.90;;;;;;5069694;28;20455;-65
2021/09/05 02:25:42;;;;;;;16.70;14.87;;;12.30;99.90;;;;;;5070204;28;20445;-64
2021/09/05 02:28:09;;;;;;;20.00;16.23;;;12.30;99.90;;;;;;5070121;28;20443;-64
2021/09/05 02:30:36;;;;;;;16.60;14.40;;;12.30;99.90;;;;;;5070351;28;20446;-64
2021/09/05 02:33:03;;;;;;;16.63;14.60;;;12.40;99.90;;;;;;5069985;28;20635;-64
2021/09/05 02:35:30;;;;;;;20.27;15.60;;;12.40;99.90;;;;;;5070456;28;20518;-64
2021/09/05 02:37:59;;;;;;;22.33;16.40;;;12.50;99.90;;;;;;5070190;28;20477;-64
2021/09/05 02:40:26;;;;;;;18.13;15.47;;;12.40;99.90;;;;;;5070084;28;20431;-64
2021/09/05 02:42:52;;;;;;;18.67;16.00;;;12.30;99.90;;;;;;5069587;28;20992;-65
2021/09/05 02:45:19;;;;;;;17.30;15.60;;;12.30;99.90;;;;;;5069994;28;20800;-64
2021/09/05 02:47:46;;;;;;;18.07;15.37;;;12.30;99.90;;;;;;5070160;28;20435;-64
2021/09/05 02:50:13;;;;;;;18.00;15.20;;;12.30;99.90;;;;;;5069743;28;20443;-64
2021/09/05 02:52:40;;;;;;;16.03;14.33;;;12.20;99.90;;;;;;5069555;28;20451;-65
2021/09/05 02:55:09;;;;;;;16.90;14.43;;;12.30;99.90;;;;;;5069627;28;20443;-64
2021/09/05 02:57:36;;;;;;;18.40;16.10;;;12.30;99.90;;;;;;5069721;28;20479;-65
2021/09/05 03:00:03;;;;;;;19.20;17.20;;;12.20;99.90;;;;;;5069749;28;20951;-65
2021/09/05 03:02:30;;;;;;;19.03;16.80;;;12.10;99.90;;;;;;5069630;28;20455;-65
2021/09/05 03:04:57;;;;;;;18.93;16.10;;;12.10;99.90;;;;;;5069697;28;20539;-64
2021/09/05 03:07:23;;;;;;;22.13;16.90;;;12.10;99.90;;;;;;5069943;28;20817;-64
2021/09/05 03:09:51;;;;;;;19.40;15.17;;;12.20;99.90;;;;;;5069651;28;20449;-64
2021/09/05 03:12:23;;;;;;;16.23;14.53;;;12.20;99.90;;;;;;5069077;28;20447;-66
2021/09/05 03:14:50;;;;;;;16.90;14.77;;;12.20;99.90;;;;;;5069672;28;20459;-64
2021/09/05 03:17:17;;;;;;;19.60;14.90;;;12.20;99.90;;;;;;5069599;28;20518;-64
2021/09/05 03:19:43;;;;;;;18.10;15.30;;;12.20;99.90;;;;;;5069625;28;20451;-65
2021/09/05 03:22:11;;;;;;;18.00;14.60;;;12.20;99.90;;;;;;5069190;28;20957;-64
2021/09/05 03:24:37;;;;;;;17.93;15.07;;;12.10;99.90;;;;;;5069571;28;20471;-65
2021/09/05 03:27:05;;;;;;;18.23;15.50;;;12.10;99.90;;;;;;5069262;28;20457;-64
2021/09/05 03:29:33;;;;;;;18.10;15.00;;;12.10;99.90;;;;;;5070024;28;20447;-65
2021/09/05 03:32:00;;;;;;;16.20;13.67;;;12.00;99.90;;;;;;5069466;28;20453;-64
2021/09/05 03:34:27;;;;;;;17.40;14.23;;;11.90;99.90;;;;;;5070391;28;20545;-65
2021/09/05 03:36:53;;;;;;;14.60;13.10;;;11.90;99.90;;;;;;5073715;28;20479;-64
2021/09/05 03:39:20;;;;;;;20.23;14.53;;;11.80;99.90;;;;;;5073095;28;20447;-64
2021/09/05 03:41:47;;;;;;;17.17;14.83;;;11.80;99.90;;;;;;5073154;28;20451;-64
2021/09/05 03:44:14;;;;;;;21.40;15.77;;;11.80;99.90;;;;;;5073254;28;20583;-64
2021/09/05 03:46:42;;;;;;;21.10;15.13;;;11.80;99.90;;;;;;5073400;28;20454;-64
2021/09/05 03:49:09;;;;;;;16.80;14.63;;;11.90;99.90;;;;;;5073177;28;20443;-64
2021/09/05 03:51:36;;;;;;;18.10;15.50;;;11.80;99.90;;;;;;5072759;28;20455;-64
2021/09/05 03:54:02;;;;;;;15.43;13.83;;;11.70;99.90;;;;;;5072950;28;20554;-64
2021/09/05 03:56:29;;;;;;;15.00;13.40;;;11.70;99.90;;;;;;5073444;28;20834;-64
2021/09/05 03:58:58;;;;;;;17.53;14.00;;;11.70;99.90;;;;;;5073456;28;20489;-65
2021/09/05 04:01:24;;;;;;;17.57;14.17;;;11.70;99.90;;;;;;5072938;28;20656;-64
2021/09/05 04:03:53;;;;;;;17.63;14.73;;;11.70;99.90;;;;;;5073263;28;20463;-65
2021/09/05 04:06:20;;;;;;;14.63;13.20;;;11.60;99.90;;;;;;5072928;28;20455;-65
2021/09/05 04:08:49;;;;;;;13.87;12.40;;;11.60;99.90;;;;;;5073176;28;20439;-65
2021/09/05 04:11:16;;;;;;;16.20;13.00;;;11.60;99.90;;;;;;5073586;28;20555;-64
2021/09/05 04:13:43;;;;;;;15.00;13.40;;;11.60;99.90;;;;;;5073414;28;20550;-64
2021/09/05 04:16:10;;;;;;;16.47;14.00;;;11.60;99.90;;;;;;5073416;28;20968;-64
2021/09/05 04:18:37;;;;;;;15.83;13.80;;;11.60;99.90;;;;;;5073640;28;20483;-64
2021/09/05 04:21:05;;;;;;;15.17;13.57;;;11.70;99.90;;;;;;5072362;28;20567;-64
2021/09/05 04:23:32;;;;;;;16.27;13.47;;;11.60;99.90;;;;;;5071978;28;20474;-64
2021/09/05 04:25:59;;;;;;;17.30;12.80;;;11.60;99.90;;;;;;5072421;28;20444;-64
2021/09/05 04:28:26;;;;;;;17.17;12.90;;;11.60;99.90;;;;;;5072202;28;20443;-64
2021/09/05 04:30:53;;;;;;;15.33;13.10;;;11.70;99.90;;;;;;5072256;28;20454;-64
2021/09/05 04:33:19;;;;;;;14.37;12.87;;;11.70;99.90;;;;;;5071850;28;20465;-64
2021/09/05 04:35:46;;;;;;;16.40;14.60;;;11.70;99.90;;;;;;5072320;28;20447;-64
2021/09/05 04:38:14;;;;;;;15.60;13.27;;;11.70;99.90;;;;;;5072230;28;20485;-64
2021/09/05 04:40:41;;;;;;;17.10;13.13;;;11.70;99.90;;;;;;5072440;28;20439;-64
2021/09/05 04:43:08;;;;;;;17.17;13.87;;;11.60;99.90;;;;;;5071906;28;20490;-64
2021/09/05 04:45:35;;;;;;;16.77;14.60;;;11.70;99.90;;;;;;5071813;28;20464;-64
2021/09/05 04:48:02;;;;;;;16.57;13.63;;;11.70;99.90;;;;;;5072040;28;20956;-64
2021/09/05 04:50:29;;;;;;;17.30;12.50;;;11.70;99.90;;;;;;5071786;28;20439;-64
2021/09/05 04:52:56;;;;;;;18.33;14.10;;;11.70;99.90;;;;;;5071252;28;20471;-63
2021/09/05 04:55:24;;;;;;;20.90;14.00;;;11.70;99.90;;;;;;5071689;28;20492;-64
2021/09/05 04:57:51;;;;;;;19.97;12.17;;;11.80;99.90;;;;;;5071781;28;20481;-63
2021/09/05 05:00:18;;;;;;;15.20;13.23;;;11.70;99.90;;;;;;5071768;28;20469;-64
2021/09/05 05:02:45;;;;;;;16.57;14.87;;;11.80;99.90;;;;;;5071484;28;20899;-63
2021/09/05 05:05:12;;;;;;;17.27;12.70;;;11.80;99.90;;;;;;5072003;28;20439;-64
2021/09/05 05:07:39;;;;;;;15.67;14.00;;;11.70;99.90;;;;;;5071782;28;20448;-64
2021/09/05 05:10:07;;;;;;;18.20;14.10;;;11.70;99.90;;;;;;5071926;28;20458;-64
2021/09/05 05:12:35;;;;;;;17.90;15.10;;;11.80;99.90;;;;;;5071200;28;20522;-64
2021/09/05 05:15:02;;;;;;;13.80;12.30;;;11.80;99.90;;;;;;5071580;28;20443;-64
2021/09/05 05:17:29;;;;;;;18.70;14.07;;;11.70;99.90;;;;;;5071081;28;20491;-65
2021/09/05 05:19:56;;;;;;;16.87;13.60;;;11.70;99.90;;;;;;5071417;28;20836;-63
2021/09/05 05:22:23;;;;;;;15.37;13.70;;;11.80;99.90;;;;;;5070954;28;20439;-64
2021/09/05 05:24:50;;;;;;;15.73;14.10;;;11.90;99.90;;;;;;5070992;28;20463;-63
2021/09/05 05:27:16;;;;;;;16.97;12.80;;;11.90;99.90;;;;;;5071070;28;20447;-63
2021/09/05 05:29:45;;;;;;;13.20;11.83;;;11.80;99.90;;;;;;5071022;28;20447;-64
2021/09/05 05:32:12;;;;;;;18.53;13.17;;;11.90;99.90;;;;;;5070820;28;20447;-64
2021/09/05 05:34:39;;;;;;;14.27;12.53;;;12.00;99.90;;;;;;5070850;28;20932;-63
2021/09/05 05:37:06;;;;;;;14.37;12.97;;;12.00;99.90;;;;;;5070773;28;20447;-63
2021/09/05 05:39:33;;;;;;;17.50;13.00;;;12.00;99.90;;;;;;5070737;28;20453;-63
2021/09/05 05:41:59;;;;;;;18.93;14.57;;;12.00;99.90;;;;;;5070346;28;20973;-63
2021/09/05 05:44:26;;;;;;;21.70;12.53;;;11.90;99.90;;;;;;5070240;28;20474;-64
2021/09/05 05:46:54;;;;;;;18.50;14.03;;;12.10;99.90;;;;;;5070572;28;20447;-64
2021/09/05 05:49:21;;;;;;;16.10;14.43;;;12.10;99.90;;;;;;5070539;28;20813;-63
2021/09/05 05:51:48;;;;;;;14.60;13.10;;;12.20;99.90;;;;;;5070108;28;20587;-63
2021/09/05 05:54:15;;;;;;;21.93;15.50;;;12.30;99.90;;;;;;5070417;28;20477;-63
2021/09/05 05:56:43;;;;;;;18.90;13.93;;;12.40;99.90;;;;;;5070173;28;20446;-63
2021/09/05 05:59:10;;;;;;;14.00;12.60;;;12.50;99.90;;;;;;5070037;28;20490;-64
2021/09/05 06:01:37;;;;;;;15.77;14.17;;;12.60;99.90;;;;;;5069981;28;20445;-63
2021/09/05 06:04:06;;;;;;;16.30;13.63;;;12.60;99.90;;;;;;5070532;28;20906;-64
2021/09/05 06:06:33;;;;;;;16.40;14.70;;;12.70;99.90;;;;;;5070384;28;20447;-64
2021/09/05 06:09:00;;;;;;;15.60;13.37;;;12.80;99.90;;;;;;5070538;28;20447;-64
2021/09/05 06:11:27;;;;;;;16.07;13.63;;;13.00;99.90;;;;;;5069914;28;20560;-64
2021/09/05 06:13:54;;;;;;;16.00;14.20;;;13.10;99.90;;;;;;5070238;28;20566;-63
2021/09/05 06:16:21;;;;;;;16.23;14.10;;;13.30;99.90;;;;;;5070393;28;20527;-64
2021/09/05 06:18:48;;;;;;;14.03;12.63;;;13.40;99.90;;;;;;5070807;28;20507;-65
2021/09/05 06:21:16;;;;;;;14.40;12.87;;;13.50;99.90;;;;;;5070994;28;20452;-66
2021/09/05 06:23:43;;;;;;;13.33;12.03;;;13.60;99.90;;;;;;5070520;28;20491;-65
2021/09/05 06:26:10;;;;;;;14.10;12.57;;;13.60;99.90;;;;;;5070806;28;20478;-66
2021/09/05 06:28:37;;;;;;;17.80;13.70;;;13.60;99.90;;;;;;5070790;28;20935;-66
2021/09/05 06:31:04;;;;;;;16.20;14.43;;;13.60;99.90;;;;;;5070805;28;20446;-66
2021/09/05 06:33:31;;;;;;;14.57;12.93;;;13.70;99.90;;;;;;5069522;28;20542;-66
2021/09/05 06:35:58;;;;;;;16.73;13.60;;;13.70;99.90;;;;;;5070001;28;20445;-66
2021/09/05 06:38:26;;;;;;;15.70;13.77;;;13.80;99.90;;;;;;5069695;28;20482;-63
2021/09/05 06:40:53;;;;;;;15.47;13.87;;;13.90;99.90;;;;;;5069833;28;20441;-63
2021/09/05 06:43:20;;;;;;;15.13;13.73;;;14.00;99.90;;;;;;5069680;28;20462;-63
2021/09/05 06:45:47;;;;;;;15.43;13.77;;;14.10;99.90;;;;;;5069658;28;20498;-63
2021/09/05 06:48:14;;;;;;;14.47;12.97;;;14.20;99.90;;;;;;5069886;28;20479;-63
2021/09/05 06:50:40;;;;;;;14.37;12.97;;;14.30;99.90;;;;;;5069605;28;20804;-64
2021/09/05 06:53:07;;;;;;;15.47;13.87;;;14.40;99.90;;;;;;5069271;28;20473;-65
2021/09/05 06:55:36;;;;;;;15.23;13.63;;;14.50;99.90;;;;;;5069659;28;20525;-65
2021/09/05 06:58:02;;;;;;;16.30;13.40;;;14.50;99.90;;;;;;5069874;28;20481;-65
2021/09/05 07:00:29;;;;;;;13.70;12.10;;;14.60;99.90;;;;;;5069663;28;20446;-65
2021/09/05 07:02:56;;;;;;;14.53;13.10;;;14.70;99.90;;;;;;5069211;28;20465;-65
2021/09/05 07:05:23;;;;;;;14.93;13.23;;;14.80;99.90;;;;;;5069623;28;20522;-65
2021/09/05 07:07:50;;;;;;;13.80;12.40;;;14.90;99.90;;;;;;5069392;28;20442;-65
2021/09/05 07:10:17;;;;;;;14.40;12.70;;;15.00;99.90;;;;;;5073560;28;20850;-65
2021/09/05 07:12:46;;;;;;;16.30;13.80;;;15.10;99.90;;;;;;5073428;28;20546;-65
2021/09/05 07:15:13;;;;;;;13.93;12.33;;;15.20;99.90;;;;;;5073759;28;20449;-65
2021/09/05 07:17:39;;;;;;;14.23;12.47;;;15.30;99.90;;;;;;5073340;28;20858;-65
2021/09/05 07:20:07;;;;;;;13.07;11.77;;;15.50;99.90;;;;;;5073565;28;20523;-64
2021/09/05 07:22:34;;;;;;;13.27;11.60;;;15.60;99.90;;;;;;5073122;28;20446;-64
2021/09/05 07:25:02;;;;;;;14.17;11.53;;;15.60;99.90;;;;;;5073686;28;20446;-64
2021/09/05 07:27:29;;;;;;;12.00;10.80;;;15.70;99.90;;;;;;5073334;28;20446;-64
2021/09/05 07:29:57;;;;;;;16.40;12.53;;;15.80;99.90;;;;;;5073265;28;20525;-64
2021/09/05 07:32:24;;;;;;;11.77;10.53;;;16.00;99.90;;;;;;5072951;28;20439;-64
2021/09/05 07:34:51;;;;;;;12.13;11.00;;;16.10;99.90;;;;;;5072928;28;20554;-64
2021/09/05 07:37:18;;;;;;;13.70;12.40;;;16.20;99.90;;;;;;5073323;28;20447;-64
2021/09/05 07:39:45;;;;;;;13.40;12.10;;;16.40;99.90;;;;;;5073097;28;20490;-64
2021/09/05 07:42:12;;;;;;;13.77;11.73;;;16.50;99.90;;;;;;5072835;28;20439;-65
2021/09/05 07:44:39;;;;;;;13.40;10.87;;;16.60;99.90;;;;;;5072949;28;20570;-64
2021/09/05 07:47:07;;;;;;;11.23;10.23;;;16.70;99.90;;;;;;5073061;28;20515;-64
2021/09/05 07:49:34;;;;;;;10.80;9.80;;;16.90;99.90;;;;;;5072777;28;21119;-64
2021/09/05 07:52:01;;;;;;;11.80;10.60;;;17.00;99.90;;;;;;5072657;28;20926;-64
2021/09/05 07:54:28;;;;;;;10.50;9.40;;;17.20;99.90;;;;;;5073007;28;20550;-64
2021/09/05 07:56:54;;;;;;;14.40;10.80;;;17.30;99.90;;;;;;5072852;28;20474;-67
2021/09/05 07:59:21;;;;;;;14.10;10.20;;;17.50;99.90;;;;;;5072706;28;20488;-64
2021/09/05 08:01:48;;;;;;;10.60;9.50;;;17.60;99.90;;;;;;5071392;28;20442;-65
2021/09/05 08:04:16;;;;;;;10.87;9.57;;;17.80;99.90;;;;;;5072612;28;20846;-64
2021/09/05 08:06:43;;;;;;;9.80;8.80;;;17.80;99.90;;;;;;5072415;28;20938;-64
2021/09/05 08:09:10;;;;;;;10.30;9.20;;;17.90;99.90;;;;;;5072496;28;20447;-65
2021/09/05 08:11:37;;;;;;;11.33;10.13;;;18.00;99.90;;;;;;5072088;28;20453;-63
2021/09/05 08:14:03;;;;;;;10.60;9.57;;;18.10;99.90;;;;;;5072394;28;20476;-64
2021/09/05 08:16:33;;;;;;;9.70;8.73;;;18.30;99.90;;;;;;5072236;28;20447;-64
2021/09/05 08:18:59;;;;;;;9.30;8.40;;;18.50;99.90;;;;;;5072451;28;20486;-64
2021/09/05 08:21:28;;;;;;;9.97;8.70;;;18.70;99.90;;;;;;5071588;28;20447;-63
2021/09/05 08:23:54;;;;;;;9.70;8.80;;;18.80;99.90;;;;;;5072159;28;20462;-63
2021/09/05 08:26:23;;;;;;;9.33;7.83;;;18.90;99.90;;;;;;5072327;28;20447;-63
2021/09/05 08:28:50;;;;;;;10.30;9.00;;;19.10;99.90;;;;;;5072194;28;20454;-63
2021/09/05 08:31:17;;;;;;;9.97;7.90;;;19.20;99.90;;;;;;5081095;28;20934;-63
2021/09/05 08:33:44;;;;;;;8.70;7.40;;;19.40;99.90;;;;;;5085923;28;20466;-63
2021/09/05 08:36:11;;;;;;;9.90;8.83;;;19.50;99.90;;;;;;5090716;28;20460;-62
2021/09/05 08:38:39;;;;;;;9.50;8.53;;;19.70;99.90;;;;;;5090473;28;20478;-62
2021/09/05 08:41:06;;;;;;;9.20;7.83;;;19.80;99.90;;;;;;5086976;28;20440;-63
2021/09/05 08:43:35;;;;;;;8.90;7.77;;;19.90;99.90;;;;;;5090146;28;20463;-63
2021/09/05 08:46:02;;;;;;;9.70;8.70;;;20.10;99.90;;;;;;5090349;28;20960;-62
2021/09/05 08:48:29;;;;;;;9.67;8.43;;;20.20;99.90;;;;;;5090683;28;20953;-62
2021/09/05 08:50:56;;;;;;;9.33;8.43;;;20.40;99.90;;;;;;5090733;28;20532;-61
2021/09/05 08:53:23;;;;;;;9.50;8.40;;;20.50;99.90;;;;;;5090565;28;20484;-62
2021/09/05 08:55:51;;;;;;;10.30;9.20;;;20.60;99.90;;;;;;5090754;28;20859;-62
2021/09/05 08:58:18;;;;;;;9.70;8.70;;;20.70;99.90;;;;;;5090301;28;20447;-64
2021/09/05 09:00:45;;;;;;;9.27;8.30;;;20.80;99.90;;;;;;5090636;28;20455;-62
2021/09/05 09:03:22;;;;;;;9.03;8.17;;;20.90;99.90;;;;;;5089649;28;20477;-62
2021/09/05 09:05:53;;;;;;;9.17;8.20;;;21.00;99.90;;;;;;5090533;28;20452;-62
2021/09/05 09:08:21;;;;;;;9.73;8.63;;;21.20;99.90;;;;;;5090226;28;20454;-62
2021/09/05 09:10:52;;;;;;;11.23;9.93;;;21.40;99.90;;;;;;5087111;28;20442;-63
2021/09/05 09:13:28;;;;;;;9.17;8.20;;;21.50;99.90;;;;;;5078301;28;21007;-62
2021/09/05 09:15:56;;;;;;;8.57;7.77;;;21.70;99.90;;;;;;5082303;28;20945;-66
2021/09/05 09:18:31;;;;;;;12.50;8.63;;;22.00;99.90;;;;;;5077700;28;20523;-66
2021/09/05 09:21:00;;;;;;;9.60;8.70;;;22.50;99.90;;;;;;5078946;28;20833;-67
2021/09/05 09:23:28;;;;;;;9.30;8.40;;;22.80;99.90;;;;;;5086556;28;20474;-66
2021/09/05 09:26:02;;;;;;;9.70;8.50;;;23.10;99.90;;;;;;5089985;28;20438;-67
2021/09/05 09:28:35;;;;;;;7.17;6.47;;;23.30;99.90;;;;;;5071392;28;20479;-65
2021/09/05 09:31:14;;;;;;;7.50;6.80;;;23.90;99.90;;;;;;5070960;28;20447;-65
2021/09/05 09:33:41;;;;;;;8.47;7.67;;;24.70;99.90;;;;;;5076202;28;21341;-65
2021/09/05 09:36:11;;;;;;;9.83;6.70;;;25.00;99.90;;;;;;5089712;28;20482;-64
2021/09/05 09:38:38;;;;;;;8.23;7.43;;;25.40;99.90;;;;;;5090448;28;20472;-65
2021/09/05 09:41:12;;;;;;;8.30;7.50;;;25.50;99.90;;;;;;5090909;28;20537;-64
2021/09/05 09:43:53;;;;;;;8.23;7.43;;;25.70;99.90;;;;;;5090525;28;20557;-65
2021/09/05 09:46:21;;;;;;;8.43;7.70;;;25.60;99.90;;;;;;5090785;28;20446;-65
2021/09/05 09:48:50;;;;;;;7.40;6.60;;;26.10;99.90;;;;;;5084895;28;20475;-66
2021/09/05 09:51:18;;;;;;;7.93;7.23;;;26.20;99.90;;;;;;5087200;28;20450;-65
2021/09/05 09:53:45;;;;;;;6.93;6.33;;;26.40;99.90;;;;;;5089959;28;21112;-66
2021/09/05 09:56:16;;;;;;;7.27;6.57;;;26.60;99.90;;;;;;5081925;28;20529;-65
2021/09/05 09:58:44;;;;;;;7.20;6.50;;;27.20;99.90;;;;;;5079725;28;20533;-65
2021/09/05 10:01:13;;;;;;;6.90;6.30;;;27.80;99.30;;;;;;5071539;28;20572;-66
2021/09/05 10:03:43;;;;;;;7.27;6.10;;;28.50;98.80;;;;;;5077114;28;20535;-67
2021/09/05 10:06:11;;;;;;;7.90;6.40;;;28.90;98.00;;;;;;5074658;28;20458;-65
2021/09/05 10:08:40;;;;;;;6.57;5.97;;;28.90;96.70;;;;;;5077552;28;20452;-66
2021/09/05 10:11:10;;;;;;;7.10;6.07;;;28.90;95.20;;;;;;5077408;28;20457;-66
2021/09/05 10:13:41;;;;;;;6.33;5.73;;;28.80;94.50;;;;;;5074327;28;21392;-66
2021/09/05 10:16:08;;;;;;;7.17;6.47;;;28.40;94.50;;;;;;5074556;28;20809;-67
2021/09/05 10:18:39;;;;;;;6.40;5.70;;;28.00;94.10;;;;;;5076292;28;21131;-65
2021/09/05 10:21:06;;;;;;;6.23;5.47;;;27.70;93.90;;;;;;5081242;28;20981;-66
2021/09/05 10:23:35;;;;;;;6.60;6.00;;;27.50;96.40;;;;;;5076270;28;20488;-67
2021/09/05 10:26:07;;;;;;;5.90;5.30;;;27.60;95.30;;;;;;5076876;28;20478;-66
2021/09/05 10:28:36;;;;;;;7.20;5.37;;;27.80;96.00;;;;;;5073991;28;21088;-65
2021/09/05 10:31:06;;;;;;;6.00;5.33;;;28.20;94.60;;;;;;5073816;28;20880;-65
2021/09/05 10:33:35;;;;;;;6.53;5.57;;;28.50;93.50;;;;;;5073909;28;20495;-67
2021/09/05 10:36:10;;;;;;;6.07;5.47;;;29.00;94.60;;;;;;5077149;28;20492;-68
2021/09/05 10:38:38;;;;;;;6.40;5.07;;;29.20;91.70;;;;;;5075985;28;21195;-66
2021/09/05 10:41:13;;;;;;;6.10;5.50;;;29.40;92.70;;;;;;5076112;28;20467;-67
2021/09/05 10:44:04;;;;;;;6.10;5.50;;;29.60;92.50;;;;;;5073196;28;20874;-66
2021/09/05 10:46:36;;;;;;;5.37;4.87;;;29.60;89.80;;;;;;5076314;28;20821;-67
2021/09/05 10:49:04;;;;;;;6.40;5.10;;;29.70;91.50;;;;;;5075977;28;20450;-67
2021/09/05 10:51:35;;;;;;;7.23;6.17;;;29.80;89.10;;;;;;5078431;28;20455;-66
2021/09/05 10:54:06;;;;;;;5.63;5.10;;;30.20;88.70;;;;;;5074280;28;20467;-67
2021/09/05 10:56:34;;;;;;;6.03;4.60;;;30.70;86.20;;;;;;5075947;28;20462;-68
2021/09/05 10:59:04;;;;;;;5.93;5.33;;;30.40;83.60;;;;;;5079106;28;20453;-67
2021/09/05 11:01:34;;;;;;;5.00;4.50;;;30.40;80.40;;;;;;5079117;28;20460;-68
2021/09/05 11:04:31;;;;;;;5.27;4.63;;;30.20;83.30;;;;;;5077412;28;21049;-67
2021/09/05 11:07:02;;;;;;;5.13;4.23;;;30.60;82.30;;;;;;5081189;28;20518;-66
2021/09/05 11:09:49;;;;;;;6.70;4.70;;;31.00;73.10;;;;;;5077949;28;20447;-66
2021/09/05 11:12:24;;;;;;;5.10;4.60;;;31.50;77.70;;;;;;5079126;28;20492;-66
2021/09/05 11:15:02;;;;;;;6.17;5.10;;;32.00;80.10;;;;;;5079167;28;20468;-66
2021/09/05 11:17:32;;;;;;;4.60;4.03;;;32.40;77.30;;;;;;5080925;28;20482;-67
2021/09/05 11:20:01;;;;;;;4.77;4.27;;;32.30;76.50;;;;;;5079729;28;20474;-65
2021/09/05 11:22:32;;;;;;;5.17;4.60;;;32.80;74.90;;;;;;5088399;28;20473;-65
2021/09/05 11:25:24;;;;;;;5.00;4.50;;;33.20;75.10;;;;;;5078322;28;21197;-67
2021/09/05 11:28:14;;;;;;;5.57;4.60;;;33.60;72.10;;;;;;5087056;28;20452;-66
2021/09/05 11:30:44;;;;;;;5.50;5.00;;;33.70;69.30;;;;;;5076310;28;20462;-67
2021/09/05 11:33:13;;;;;;;5.33;4.80;;;33.80;64.10;;;;;;5087347;28;21082;-66
2021/09/05 11:35:42;;;;;;;6.00;5.00;;;33.20;63.40;;;;;;5083463;28;20455;-66
2021/09/05 11:38:10;;;;;;;5.63;4.53;;;32.80;65.10;;;;;;5087440;28;20438;-65
2021/09/05 11:40:45;;;;;;;5.30;4.80;;;32.90;66.90;;;;;;5083707;28;20570;-65
2021/09/05 11:43:12;;;;;;;5.97;5.37;;;33.50;69.20;;;;;;5084789;28;20553;-65
2021/09/05 11:45:40;;;;;;;6.43;5.83;;;34.30;65.70;;;;;;5076597;28;20554;-66
2021/09/05 11:48:08;;;;;;;6.07;4.80;;;35.20;63.80;;;;;;5082678;28;20473;-66
2021/09/05 11:50:39;;;;;;;6.13;5.40;;;35.70;61.70;;;;;;5083301;28;20454;-65
2021/09/05 11:53:06;;;;;;;4.97;4.43;;;35.40;62.80;;;;;;5069299;28;20483;-65
2021/09/05 11:55:33;;;;;;;4.47;4.07;;;36.30;59.00;;;;;;5074200;28;20542;-65
2021/09/05 11:58:02;;;;;;;4.93;4.10;;;36.80;54.80;;;;;;5078420;28;20450;-66
2021/09/05 12:00:32;;;;;;;4.83;4.27;;;35.90;54.70;;;;;;5078400;28;20478;-67
2021/09/05 12:03:00;;;;;;;5.90;4.50;;;34.90;55.40;;;;;;5077935;28;20506;-67
2021/09/05 12:05:28;;;;;;;5.57;5.00;;;33.30;57.10;;;;;;5079083;28;20994;-65
2021/09/05 12:07:56;;;;;;;5.40;4.90;;;33.40;62.80;;;;;;5076129;28;20475;-65
2021/09/05 12:10:25;;;;;;;5.47;4.60;;;34.80;58.10;;;;;;5079777;28;20534;-65
2021/09/05 12:13:04;;;;;;;14.30;12.80;;;36.00;56.60;;;;;;5076001;28;20456;-66
2021/09/05 12:15:37;;;;;;;5.73;4.20;;;36.40;54.20;;;;;;5077934;28;20491;-66
2021/09/05 12:18:17;;;;;;;6.77;5.00;;;36.20;51.60;;;;;;5079477;28;20930;-65
2021/09/05 12:20:48;;;;;;;8.63;5.70;;;36.50;51.90;;;;;;5078503;28;21027;-65
2021/09/05 12:23:22;;;;;;;5.40;4.70;;;36.40;53.10;;;;;;5078913;28;21039;-65
2021/09/05 12:25:50;;;;;;;4.43;4.03;;;36.90;51.70;;;;;;5079056;28;20918;-66
2021/09/05 12:28:23;;;;;;;7.60;4.40;;;37.30;53.60;;;;;;5088293;28;20828;-65
2021/09/05 12:30:53;;;;;;;5.83;4.33;;;37.80;52.10;;;;;;5088860;28;20527;-65
2021/09/05 12:33:21;;;;;;;4.60;4.13;;;38.30;49.90;;;;;;5081373;28;20899;-64
2021/09/05 12:35:50;;;;;;;5.10;4.10;;;38.60;47.00;;;;;;5077594;28;20489;-65
2021/09/05 12:38:22;;;;;;;5.30;4.60;;;39.00;49.60;;;;;;5080587;28;20454;-66